createdAt,value
2018-10-06T00:00:25.338Z,7.16
2018-10-06T00:02:54.417Z,7.10
2018-10-06T00:05:23.556Z,6.99
2018-10-06T00:07:52.559Z,7.01
2018-10-06T00:10:21.427Z,6.89
2018-10-06T00:12:50.299Z,6.79
2018-10-06T00:15:19.516Z,6.69
2018-10-06T00:17:48.498Z,6.57
2018-10-06T00:20:17.710Z,6.55
2018-10-06T00:22:46.885Z,6.53
2018-10-06T00:25:15.729Z,6.49
2018-10-06T00:27:44.761Z,6.40
2018-10-06T00:30:14.075Z,6.36
2018-10-06T00:32:43.198Z,6.33
2018-10-06T00:35:12.523Z,6.29
2018-10-06T00:37:41.723Z,6.28
2018-10-06T00:40:10.866Z,6.33
2018-10-06T00:42:39.970Z,6.33
2018-10-06T00:45:09.133Z,6.20
2018-10-06T00:47:38.133Z,6.20
2018-10-06T00:50:07.218Z,6.16
2018-10-06T00:52:36.178Z,6.12
2018-10-06T00:55:05.549Z,6.03
2018-10-06T00:57:34.406Z,5.94
2018-10-06T01:00:03.282Z,5.94
2018-10-06T01:02:32.379Z,5.92
2018-10-06T01:05:01.230Z,5.91
2018-10-06T01:07:30.616Z,6.05
2018-10-06T01:09:59.549Z,6.18
2018-10-06T01:12:28.748Z,6.18
2018-10-06T01:14:57.662Z,6.15
2018-10-06T01:17:26.756Z,6.28
2018-10-06T01:19:55.641Z,6.29
2018-10-06T01:22:24.246Z,6.22
2018-10-06T01:24:52.886Z,6.27
2018-10-06T01:27:21.833Z,6.32
2018-10-06T01:29:50.738Z,6.25
2018-10-06T01:32:19.522Z,6.19
2018-10-06T01:34:48.321Z,6.18
2018-10-06T01:37:17.330Z,6.12
2018-10-06T01:39:46.219Z,6.08
2018-10-06T01:42:15.381Z,6.05
2018-10-06T01:44:44.579Z,5.96
2018-10-06T01:47:13.542Z,5.89
2018-10-06T01:49:42.333Z,5.94
2018-10-06T01:52:11.489Z,5.92
2018-10-06T01:54:40.238Z,5.89
2018-10-06T01:57:09.183Z,5.84
2018-10-06T01:59:38.159Z,5.79
2018-10-06T02:02:07.298Z,5.75
2018-10-06T02:04:36.194Z,5.85
2018-10-06T02:07:05.243Z,5.85
2018-10-06T02:09:34.233Z,5.84
2018-10-06T02:12:03.693Z,5.89
2018-10-06T02:14:32.327Z,5.87
2018-10-06T02:17:01.212Z,5.85
2018-10-06T02:19:30.582Z,5.82
2018-10-06T02:21:59.584Z,5.76
2018-10-06T02:24:28.405Z,5.79
2018-10-06T02:26:57.700Z,5.76
2018-10-06T02:29:26.509Z,5.66
2018-10-06T02:31:55.359Z,5.57
2018-10-06T02:34:24.408Z,5.55
2018-10-06T02:36:53.424Z,5.44
2018-10-06T02:39:23.547Z,5.47
2018-10-06T02:41:52.429Z,5.45
2018-10-06T02:44:21.330Z,5.37
2018-10-06T02:46:50.125Z,5.34
2018-10-06T02:49:19.232Z,5.38
2018-10-06T02:51:48.369Z,5.38
2018-10-06T02:54:17.571Z,5.37
2018-10-06T02:56:46.274Z,5.36
2018-10-06T02:59:15.228Z,5.32
2018-10-06T03:01:44.115Z,5.31
2018-10-06T03:04:13.079Z,5.29
2018-10-06T03:06:41.975Z,5.15
2018-10-06T03:09:11.641Z,5.09
2018-10-06T03:11:40.591Z,4.98
2018-10-06T03:14:09.776Z,4.92
2018-10-06T03:16:38.957Z,4.87
2018-10-06T03:19:08.340Z,4.82
2018-10-06T03:21:37.261Z,4.76
2018-10-06T03:24:06.703Z,4.65
2018-10-06T03:26:35.803Z,4.58
2018-10-06T03:29:04.855Z,4.50
2018-10-06T03:31:33.555Z,4.54
2018-10-06T03:34:02.575Z,4.63
2018-10-06T03:36:31.466Z,4.64
2018-10-06T03:39:01.495Z,4.69
2018-10-06T03:41:30.564Z,4.62
2018-10-06T03:43:59.569Z,4.61
2018-10-06T03:46:28.851Z,4.56
2018-10-06T03:48:58.250Z,4.41
2018-10-06T03:51:27.106Z,4.51
2018-10-06T03:53:56.289Z,4.53
2018-10-06T03:56:25.230Z,4.50
2018-10-06T03:58:54.227Z,4.47
2018-10-06T04:01:23.248Z,4.42
2018-10-06T04:03:52.292Z,4.42
2018-10-06T04:06:21.322Z,4.47
2018-10-06T04:08:50.436Z,4.52
2018-10-06T04:11:19.861Z,4.56
2018-10-06T04:13:48.622Z,4.59
2018-10-06T04:16:17.433Z,4.52
2018-10-06T04:18:46.140Z,4.50
2018-10-06T04:21:15.485Z,4.50
2018-10-06T04:23:44.357Z,4.50
2018-10-06T04:26:13.079Z,4.46
2018-10-06T04:28:41.886Z,4.46
2018-10-06T04:31:11.063Z,4.47
2018-10-06T04:33:39.951Z,4.45
2018-10-06T04:36:09.729Z,4.43
2018-10-06T04:38:38.466Z,4.35
2018-10-06T04:41:07.803Z,4.31
2018-10-06T04:43:37.130Z,4.33
2018-10-06T04:46:05.869Z,4.33
2018-10-06T04:48:34.610Z,4.25
2018-10-06T04:51:03.500Z,4.23
2018-10-06T04:53:32.316Z,4.19
2018-10-06T04:56:01.319Z,4.19
2018-10-06T04:58:30.347Z,4.15
2018-10-06T05:00:59.247Z,4.13
2018-10-06T05:03:28.233Z,4.10
2018-10-06T05:05:57.265Z,4.15
2018-10-06T05:08:26.012Z,4.17
2018-10-06T05:10:55.023Z,4.10
2018-10-06T05:13:23.873Z,4.13
2018-10-06T05:15:52.819Z,4.16
2018-10-06T05:18:21.751Z,4.18
2018-10-06T05:20:57.042Z,4.33
2018-10-06T05:23:25.927Z,4.29
2018-10-06T05:25:54.977Z,4.42
2018-10-06T05:28:23.880Z,4.37
2018-10-06T05:30:52.880Z,4.34
2018-10-06T05:33:21.693Z,4.33
2018-10-06T05:35:50.483Z,4.32
2018-10-06T05:38:19.270Z,4.37
2018-10-06T05:40:48.251Z,4.36
2018-10-06T05:43:17.059Z,4.36
2018-10-06T05:45:46.097Z,4.40
2018-10-06T05:48:15.020Z,4.48
2018-10-06T05:50:43.979Z,4.42
2018-10-06T05:53:12.900Z,4.47
2018-10-06T05:55:41.788Z,4.54
2018-10-06T05:58:10.632Z,4.56
2018-10-06T06:00:39.619Z,4.63
2018-10-06T06:03:09.199Z,4.70
2018-10-06T06:05:38.110Z,4.88
2018-10-06T06:08:07.064Z,5.18
2018-10-06T06:10:35.856Z,5.49
2018-10-06T06:13:04.694Z,5.94
2018-10-06T06:15:33.691Z,6.42
2018-10-06T06:18:03.173Z,6.96
2018-10-06T06:20:32.447Z,7.51
2018-10-06T06:23:01.303Z,7.92
2018-10-06T06:25:30.196Z,8.25
2018-10-06T06:27:59.016Z,8.60
2018-10-06T06:30:28.224Z,8.83
2018-10-06T06:32:57.429Z,9.14
2018-10-06T06:35:26.414Z,9.49
2018-10-06T06:37:55.557Z,9.78
2018-10-06T06:40:24.525Z,10.09
2018-10-06T06:42:53.946Z,9.99
2018-10-06T06:45:23.042Z,10.22
2018-10-06T06:47:52.035Z,9.98
2018-10-06T06:50:20.841Z,10.34
2018-10-06T06:52:49.825Z,10.51
2018-10-06T06:55:18.628Z,10.68
2018-10-06T06:57:47.550Z,11.28
2018-10-06T07:00:16.582Z,11.27
2018-10-06T07:02:45.607Z,11.22
2018-10-06T07:05:14.806Z,11.48
2018-10-06T07:07:43.868Z,11.07
2018-10-06T07:10:12.936Z,11.37
2018-10-06T07:12:41.919Z,11.50
2018-10-06T07:15:10.878Z,11.18
2018-10-06T07:17:39.834Z,11.07
2018-10-06T07:20:08.926Z,11.19
2018-10-06T07:22:38.274Z,11.51
2018-10-06T07:25:07.470Z,11.64
2018-10-06T07:27:36.510Z,11.58
2018-10-06T07:30:05.894Z,11.79
2018-10-06T07:32:34.900Z,11.75
2018-10-06T07:35:03.894Z,11.74
2018-10-06T07:41:05.376Z,11.96
2018-10-06T07:43:34.339Z,12.00
2018-10-06T07:46:03.464Z,12.23
2018-10-06T07:48:32.458Z,12.17
2018-10-06T07:51:01.385Z,12.31
2018-10-06T07:53:30.283Z,12.07
2018-10-06T07:55:59.422Z,12.11
2018-10-06T07:58:28.639Z,12.04
2018-10-06T08:00:57.867Z,12.38
2018-10-06T08:03:27.210Z,12.59
2018-10-06T08:05:56.130Z,12.72
2018-10-06T08:08:25.118Z,12.60
2018-10-06T08:10:54.129Z,12.61
2018-10-06T08:13:23.108Z,12.45
2018-10-06T08:15:52.432Z,12.51
2018-10-06T08:18:21.380Z,12.82
2018-10-06T08:20:50.388Z,13.02
2018-10-06T08:23:19.274Z,12.80
2018-10-06T08:25:48.165Z,13.05
2018-10-06T08:28:17.695Z,13.19
2018-10-06T08:30:46.735Z,12.93
2018-10-06T08:33:15.686Z,12.62
2018-10-06T08:35:44.647Z,12.39
2018-10-06T08:38:13.613Z,12.32
2018-10-06T08:40:42.551Z,12.38
2018-10-06T08:43:11.693Z,12.42
2018-10-06T08:45:40.685Z,12.19
2018-10-06T08:48:10.204Z,11.94
2018-10-06T08:50:39.380Z,12.11
2018-10-06T08:53:08.448Z,11.90
2018-10-06T08:55:37.300Z,12.09
2018-10-06T08:58:06.624Z,12.42
2018-10-06T09:00:35.776Z,12.74
2018-10-06T09:03:04.444Z,13.01
2018-10-06T09:05:33.581Z,13.02
2018-10-06T09:08:02.659Z,13.11
2018-10-06T09:10:31.458Z,13.97
2018-10-06T09:13:00.339Z,14.70
2018-10-06T09:15:29.336Z,14.47
2018-10-06T09:17:58.125Z,14.36
2018-10-06T09:20:27.037Z,14.04
2018-10-06T09:22:55.898Z,13.90
2018-10-06T09:25:25.205Z,13.34
2018-10-06T09:27:54.169Z,13.21
2018-10-06T09:30:23.024Z,12.71
2018-10-06T09:32:52.161Z,13.30
2018-10-06T09:35:20.864Z,13.51
2018-10-06T09:37:49.635Z,13.60
2018-10-06T09:40:18.918Z,13.30
2018-10-06T09:42:48.032Z,12.72
2018-10-06T09:45:16.963Z,12.66
2018-10-06T09:47:46.106Z,12.61
2018-10-06T09:50:14.913Z,12.67
2018-10-06T09:52:43.748Z,12.39
2018-10-06T09:55:12.660Z,12.43
2018-10-06T09:57:41.650Z,12.46
2018-10-06T10:00:10.809Z,12.43
2018-10-06T10:02:44.662Z,12.78
2018-10-06T10:05:51.813Z,13.16
2018-10-06T10:08:21.167Z,13.82
2018-10-06T10:10:51.071Z,14.34
2018-10-06T10:13:20.574Z,14.92
2018-10-06T10:15:49.529Z,14.93
2018-10-06T10:18:18.905Z,14.69
2018-10-06T10:20:47.887Z,14.15
2018-10-06T10:23:17.190Z,13.78
2018-10-06T10:25:46.385Z,13.51
2018-10-06T10:28:15.338Z,13.69
2018-10-06T10:30:44.462Z,13.96
2018-10-06T10:33:13.705Z,14.10
2018-10-06T10:35:42.496Z,13.88
2018-10-06T10:38:11.213Z,13.69
2018-10-06T10:40:40.289Z,12.99
2018-10-06T10:43:09.472Z,13.10
2018-10-06T10:45:38.650Z,13.59
2018-10-06T10:48:08.298Z,13.95
2018-10-06T10:50:37.722Z,14.01
2018-10-06T10:53:06.842Z,14.13
2018-10-06T10:55:36.110Z,14.02
2018-10-06T10:58:05.174Z,14.23
2018-10-06T11:00:34.079Z,14.22
2018-10-06T11:03:02.976Z,13.87
2018-10-06T11:05:32.134Z,13.87
2018-10-06T11:08:01.092Z,14.30
2018-10-06T11:10:30.200Z,14.34
2018-10-06T11:12:59.317Z,13.94
2018-10-06T11:15:28.451Z,13.57
2018-10-06T11:17:57.381Z,13.13
2018-10-06T11:20:26.276Z,12.42
2018-10-06T11:22:55.021Z,12.33
2018-10-06T11:25:24.080Z,12.27
2018-10-06T11:27:52.845Z,12.29
2018-10-06T11:30:21.857Z,12.30
2018-10-06T11:32:50.995Z,12.25
2018-10-06T11:35:20.301Z,12.29
2018-10-06T11:37:49.448Z,12.23
2018-10-06T11:40:18.513Z,12.09
2018-10-06T11:42:47.608Z,12.08
2018-10-06T11:45:16.718Z,12.03
2018-10-06T11:47:45.771Z,12.11
2018-10-06T11:50:15.540Z,12.21
2018-10-06T11:52:44.497Z,12.31
2018-10-06T11:55:13.347Z,12.20
2018-10-06T11:57:42.238Z,12.14
2018-10-06T12:00:11.357Z,12.06
2018-10-06T12:02:40.361Z,11.90
2018-10-06T12:05:09.320Z,12.02
2018-10-06T12:07:38.390Z,11.79
2018-10-06T12:10:08.115Z,11.50
2018-10-06T12:12:37.152Z,11.32
2018-10-06T12:15:06.322Z,11.30
2018-10-06T12:17:35.791Z,11.63
2018-10-06T12:20:04.943Z,12.07
2018-10-06T12:22:34.257Z,12.52
2018-10-06T12:25:03.957Z,12.77
2018-10-06T12:27:32.880Z,12.98
2018-10-06T12:30:01.945Z,13.22
2018-10-06T12:32:31.043Z,13.41
2018-10-06T12:35:00.191Z,13.75
2018-10-06T12:37:29.311Z,13.75
2018-10-06T12:39:58.133Z,14.02
2018-10-06T12:42:27.192Z,14.29
2018-10-06T12:44:55.897Z,13.99
2018-10-06T12:47:24.797Z,13.98
2018-10-06T12:49:54.310Z,14.08
2018-10-06T12:52:23.508Z,14.07
2018-10-06T12:54:52.404Z,14.25
2018-10-06T12:57:21.297Z,14.28
2018-10-06T12:59:50.299Z,14.41
2018-10-06T13:02:19.323Z,14.48
2018-10-06T13:04:48.316Z,14.37
2018-10-06T13:07:17.206Z,14.37
2018-10-06T13:09:46.348Z,14.52
2018-10-06T13:12:15.253Z,14.49
2018-10-06T13:14:44.091Z,14.36
2018-10-06T13:17:13.117Z,14.23
2018-10-06T13:19:42.041Z,14.08
2018-10-06T13:22:10.926Z,13.91
2018-10-06T13:24:39.925Z,13.80
2018-10-06T13:27:09.100Z,13.66
2018-10-06T13:29:38.055Z,13.59
2018-10-06T13:32:07.567Z,13.32
2018-10-06T13:34:36.558Z,13.00
2018-10-06T13:37:05.808Z,12.81
2018-10-06T13:39:35.118Z,13.41
2018-10-06T13:42:04.285Z,13.64
2018-10-06T13:44:33.537Z,13.46
2018-10-06T13:47:02.821Z,12.97
2018-10-06T13:49:32.099Z,12.47
2018-10-06T13:52:01.027Z,12.23
2018-10-06T13:54:30.157Z,12.02
2018-10-06T13:56:59.065Z,11.79
2018-10-06T13:59:27.849Z,11.62
2018-10-06T14:01:57.059Z,11.46
2018-10-06T14:04:25.989Z,11.36
2018-10-06T14:06:54.969Z,11.30
2018-10-06T14:09:24.181Z,11.29
2018-10-06T14:11:53.069Z,11.20
2018-10-06T14:14:22.250Z,11.08
2018-10-06T14:16:51.280Z,11.02
2018-10-06T14:19:20.182Z,10.96
2018-10-06T14:21:49.083Z,10.88
2018-10-06T14:24:18.232Z,10.81
2018-10-06T14:26:47.250Z,10.67
2018-10-06T14:29:16.357Z,10.60
2018-10-06T14:31:45.664Z,10.54
2018-10-06T14:34:14.509Z,7.19
2018-10-06T14:36:43.633Z,10.50
2018-10-06T14:39:12.692Z,10.51
2018-10-06T14:41:41.662Z,10.52
2018-10-06T14:44:10.593Z,10.50
2018-10-06T14:46:39.901Z,10.50
2018-10-06T14:49:09.077Z,10.47
2018-10-06T14:51:37.954Z,10.48
2018-10-06T14:54:06.932Z,10.41
2018-10-06T14:56:36.063Z,10.42
2018-10-06T14:59:05.511Z,10.40
2018-10-06T15:01:34.813Z,10.23
2018-10-06T15:04:04.084Z,10.19
2018-10-06T15:06:33.216Z,10.15
2018-10-06T15:09:02.342Z,10.10
2018-10-06T15:11:31.505Z,10.07
2018-10-06T15:14:00.612Z,10.00
2018-10-06T15:16:30.620Z,9.94
2018-10-06T15:18:59.691Z,9.85
2018-10-06T15:21:29.027Z,9.71
2018-10-06T15:23:58.221Z,9.63
2018-10-06T15:26:28.283Z,9.54
2018-10-06T15:28:58.106Z,9.45
2018-10-06T15:31:27.193Z,9.39
2018-10-06T15:33:56.159Z,9.27
2018-10-06T15:36:25.347Z,9.21
2018-10-06T15:38:54.070Z,9.16
2018-10-06T15:41:23.309Z,9.14
2018-10-06T15:43:52.356Z,9.05
2018-10-06T15:46:21.456Z,8.97
2018-10-06T15:48:51.019Z,8.87
2018-10-06T15:51:20.128Z,8.80
2018-10-06T15:53:49.368Z,8.73
2018-10-06T15:56:18.919Z,8.64
2018-10-06T15:58:47.821Z,8.50
2018-10-06T16:01:16.764Z,8.46
2018-10-06T16:03:45.774Z,8.37
2018-10-06T16:06:14.822Z,8.29
2018-10-06T16:08:43.873Z,8.19
2018-10-06T16:11:12.621Z,8.08
2018-10-06T16:13:41.584Z,7.96
2018-10-06T16:16:11.223Z,7.90
2018-10-06T16:18:39.992Z,7.85
2018-10-06T16:21:09.026Z,7.79
2018-10-06T16:23:38.225Z,7.73
2018-10-06T16:26:07.393Z,7.70
2018-10-06T16:28:36.407Z,7.58
2018-10-06T16:31:06.300Z,7.57
2018-10-06T16:33:35.485Z,7.46
2018-10-06T16:36:04.902Z,7.38
2018-10-06T16:38:34.874Z,7.33
2018-10-06T16:41:03.860Z,7.27
2018-10-06T16:43:33.108Z,7.15
2018-10-06T16:46:02.329Z,7.02
2018-10-06T16:48:31.587Z,6.92
2018-10-06T16:51:00.751Z,6.83
2018-10-06T16:53:29.789Z,6.77
2018-10-06T16:55:58.989Z,6.65
2018-10-06T16:58:28.218Z,6.59
2018-10-06T17:00:57.286Z,6.47
2018-10-06T17:03:26.757Z,6.38
2018-10-06T17:05:55.864Z,6.28
2018-10-06T17:08:25.208Z,6.17
2018-10-06T17:10:54.038Z,6.09
2018-10-06T17:13:23.342Z,6.01
2018-10-06T17:15:52.424Z,5.93
2018-10-06T17:18:21.400Z,5.14
2018-10-06T17:20:50.525Z,5.80
2018-10-06T17:23:50.365Z,5.72
2018-10-06T17:26:20.154Z,5.62
2018-10-06T17:28:49.383Z,5.57
2018-10-06T17:31:18.541Z,5.53
2018-10-06T17:33:47.768Z,5.46
2018-10-06T17:36:16.697Z,5.42
2018-10-06T17:38:46.178Z,5.31
2018-10-06T17:41:15.927Z,5.26
2018-10-06T17:43:45.208Z,5.18
2018-10-06T17:46:14.251Z,5.08
2018-10-06T17:48:43.591Z,5.00
2018-10-06T17:51:13.169Z,4.86
2018-10-06T17:53:42.316Z,4.84
2018-10-06T17:56:11.540Z,4.67
2018-10-06T17:58:40.645Z,4.63
2018-10-06T18:01:10.070Z,4.58
2018-10-06T18:03:39.199Z,4.49
2018-10-06T18:06:08.605Z,4.43
2018-10-06T18:08:38.326Z,4.34
2018-10-06T18:11:07.942Z,4.30
2018-10-06T18:13:37.426Z,4.22
2018-10-06T18:16:06.970Z,4.17
2018-10-06T18:18:36.360Z,4.00
2018-10-06T18:21:05.605Z,3.89
2018-10-06T18:23:34.824Z,3.86
2018-10-06T18:26:03.930Z,3.70
2018-10-06T18:28:32.943Z,3.59
2018-10-06T18:31:02.017Z,3.58
2018-10-06T18:33:31.064Z,3.52
2018-10-06T18:36:00.082Z,3.52
2018-10-06T18:38:29.249Z,3.50
2018-10-06T18:40:58.379Z,3.44
2018-10-06T18:43:27.568Z,3.42
2018-10-06T18:45:56.757Z,3.38
2018-10-06T18:48:25.877Z,3.33
2018-10-06T18:50:54.806Z,3.23
2018-10-06T18:53:23.763Z,3.16
2018-10-06T18:55:52.888Z,3.11
2018-10-06T18:58:21.869Z,3.04
2018-10-06T19:00:50.935Z,2.97
2018-10-06T19:03:20.321Z,2.91
2018-10-06T19:05:49.514Z,2.78
2018-10-06T19:08:18.741Z,2.74
2018-10-06T19:10:47.772Z,2.71
2018-10-06T19:13:16.634Z,2.66
2018-10-06T19:15:45.657Z,2.61
2018-10-06T19:18:15.029Z,2.57
2018-10-06T19:20:44.351Z,2.56
2018-10-06T19:23:13.140Z,2.54
2018-10-06T19:25:42.601Z,2.54
2018-10-06T19:28:12.383Z,2.44
2018-10-06T19:30:41.982Z,2.44
2018-10-06T19:33:10.927Z,2.40
2018-10-06T19:35:40.123Z,2.33
2018-10-06T19:38:09.418Z,2.30
2018-10-06T19:40:38.773Z,2.25
2018-10-06T19:43:08.425Z,2.21
2018-10-06T19:45:37.766Z,2.17
2018-10-06T19:48:07.060Z,2.15
2018-10-06T19:50:36.675Z,2.08
2018-10-06T19:53:05.759Z,2.06
2018-10-06T19:55:34.723Z,2.00
2018-10-06T19:58:04.478Z,1.95
2018-10-06T20:00:33.874Z,1.93
2018-10-06T20:03:02.976Z,1.90
2018-10-06T20:05:32.116Z,1.84
2018-10-06T20:08:02.101Z,1.84
2018-10-06T20:10:32.236Z,1.84
2018-10-06T20:13:01.492Z,1.84
2018-10-06T20:15:31.055Z,1.80
2018-10-06T20:18:00.306Z,1.79
2018-10-06T20:20:29.529Z,1.75
2018-10-06T20:22:58.412Z,1.71
2018-10-06T20:25:27.498Z,1.65
2018-10-06T20:27:56.665Z,1.62
2018-10-06T20:30:26.215Z,1.59
2018-10-06T20:32:55.744Z,0.45
2018-10-06T20:35:25.610Z,1.48
2018-10-06T20:37:54.475Z,1.45
2018-10-06T20:40:23.479Z,1.40
2018-10-06T20:42:52.854Z,1.36
2018-10-06T20:45:21.911Z,1.33
2018-10-06T20:47:50.934Z,1.27
2018-10-06T20:50:20.119Z,1.18
2018-10-06T20:52:49.363Z,1.15
2018-10-06T20:55:18.347Z,1.11
2018-10-06T20:57:47.624Z,1.10
2018-10-06T21:00:16.857Z,1.10
2018-10-06T21:02:45.920Z,1.04
2018-10-06T21:05:15.247Z,1.09
2018-10-06T21:07:44.378Z,1.03
2018-10-06T21:10:13.611Z,1.01
2018-10-06T21:12:42.734Z,1.05
2018-10-06T21:15:11.726Z,1.07
2018-10-06T21:17:40.925Z,1.11
2018-10-06T21:20:10.281Z,1.07
2018-10-06T21:22:39.371Z,1.10
2018-10-06T21:25:08.843Z,1.13
2018-10-06T21:27:37.867Z,1.17
2018-10-06T21:30:06.924Z,1.21
2018-10-06T21:32:36.089Z,1.22
2018-10-06T21:35:05.971Z,1.21
2018-10-06T21:37:35.000Z,1.28
2018-10-06T21:40:04.102Z,1.30
2018-10-06T21:42:33.029Z,1.34
2018-10-06T21:45:02.582Z,1.33
2018-10-06T21:47:32.269Z,1.34
2018-10-06T21:50:01.544Z,1.32
2018-10-06T21:52:30.313Z,1.33
2018-10-06T21:54:59.570Z,1.31
2018-10-06T21:57:28.894Z,1.34
2018-10-06T21:59:57.895Z,1.36
2018-10-06T22:02:27.239Z,1.36
2018-10-06T22:04:56.185Z,1.38
2018-10-06T22:07:25.359Z,1.33
2018-10-06T22:09:54.553Z,1.32
2018-10-06T22:12:23.835Z,1.31
2018-10-06T22:14:52.931Z,1.32
2018-10-06T22:17:21.970Z,1.32
2018-10-06T22:19:50.928Z,1.31
2018-10-06T22:22:19.907Z,1.28
2018-10-06T22:24:48.971Z,1.28
2018-10-06T22:27:18.374Z,1.28
2018-10-06T22:29:47.637Z,1.22
2018-10-06T22:32:16.699Z,1.15
2018-10-06T22:34:45.723Z,1.10
2018-10-06T22:37:14.762Z,1.10
2018-10-06T22:39:44.244Z,1.12
2018-10-06T22:42:13.576Z,1.14
2018-10-06T22:44:42.556Z,1.15
2018-10-06T22:47:11.647Z,1.10
2018-10-06T22:49:40.433Z,1.06
2018-10-06T22:52:09.240Z,1.07
2018-10-06T22:54:38.717Z,1.06
2018-10-06T22:57:07.890Z,1.07
2018-10-06T22:59:36.670Z,1.04
2018-10-06T23:02:05.554Z,1.01
2018-10-06T23:04:34.415Z,0.96
2018-10-06T23:07:03.424Z,0.93
2018-10-06T23:09:32.269Z,0.88
2018-10-06T23:12:01.397Z,0.81
2018-10-06T23:14:30.297Z,0.79
2018-10-06T23:16:59.160Z,0.82
2018-10-06T23:19:27.989Z,0.83
2018-10-06T23:21:57.133Z,0.82
2018-10-06T23:24:26.175Z,0.80
2018-10-06T23:26:55.041Z,0.76
2018-10-06T23:29:24.160Z,0.80
2018-10-06T23:31:53.157Z,0.82
2018-10-06T23:34:22.119Z,0.85
2018-10-06T23:36:50.980Z,0.86
2018-10-06T23:39:19.708Z,0.82
2018-10-06T23:41:49.684Z,0.84
2018-10-06T23:44:18.750Z,0.85
2018-10-06T23:46:47.631Z,0.87
2018-10-06T23:52:48.777Z,0.90
2018-10-06T23:55:17.503Z,0.90
2018-10-06T23:57:46.598Z,0.91
